createdAt,value
2023-01-21T00:03:20.430Z,5.60
2023-01-21T00:08:24.140Z,5.00
2023-01-21T00:13:27.655Z,3.30
2023-01-21T00:18:32.877Z,3.77
2023-01-21T00:23:36.521Z,2.60
2023-01-21T00:28:41.623Z,3.60
2023-01-21T00:33:48.194Z,5.20
2023-01-21T00:38:52.115Z,3.57
2023-01-21T00:43:55.701Z,3.27
2023-01-21T00:49:01.243Z,2.07
2023-01-21T00:54:04.994Z,2.70
2023-01-21T00:59:08.799Z,2.80
2023-01-21T01:04:14.470Z,2.33
2023-01-21T01:09:18.470Z,3.30
2023-01-21T01:14:22.225Z,2.83
2023-01-21T01:19:27.556Z,4.13
2023-01-21T01:24:32.210Z,2.70
2023-01-21T01:29:35.984Z,4.77
2023-01-21T01:34:40.883Z,5.30
2023-01-21T01:39:44.454Z,6.83
2023-01-21T01:45:00.504Z,3.33
2023-01-21T01:50:07.160Z,3.93
2023-01-21T01:55:11.756Z,3.70
2023-01-21T02:00:16.604Z,3.37
2023-01-21T02:05:21.837Z,4.00
2023-01-21T02:10:25.404Z,3.17
2023-01-21T02:15:37.209Z,3.43
2023-01-21T02:21:04.294Z,3.33
2023-01-21T02:26:46.755Z,2.70
2023-01-21T02:32:12.067Z,2.40
2023-01-21T02:37:23.690Z,2.47
2023-01-21T02:42:34.242Z,2.00
2023-01-21T02:47:45.237Z,1.57
2023-01-21T02:52:57.679Z,2.00
2023-01-21T02:58:04.402Z,2.03
2023-01-21T03:03:26.248Z,3.30
2023-01-21T03:08:37.681Z,4.17
2023-01-21T03:14:01.959Z,5.83
2023-01-21T03:19:09.349Z,2.93
2023-01-21T03:24:16.308Z,2.90
2023-01-21T03:29:23.550Z,4.03
2023-01-21T03:34:30.724Z,2.17
2023-01-21T03:39:42.635Z,2.00
2023-01-21T03:44:47.570Z,2.10
2023-01-21T03:49:55.500Z,2.47
2023-01-21T03:55:00.712Z,1.70
2023-01-21T04:00:05.095Z,3.73
2023-01-21T04:05:09.695Z,2.90
2023-01-21T04:10:14.831Z,2.77
2023-01-21T04:15:18.492Z,2.00
2023-01-21T04:20:22.033Z,1.30
2023-01-21T04:25:26.923Z,1.73
2023-01-21T04:30:30.653Z,2.97
2023-01-21T04:35:36.373Z,1.00
2023-01-21T04:40:41.184Z,1.13
2023-01-21T04:45:44.717Z,2.30
2023-01-21T04:50:48.441Z,1.53
2023-01-21T04:55:54.850Z,2.20
2023-01-21T05:00:58.470Z,2.50
2023-01-21T05:06:02.019Z,2.10
2023-01-21T05:11:08.811Z,2.67
2023-01-21T05:16:14.224Z,3.17
2023-01-21T05:21:17.730Z,1.80
2023-01-21T05:26:22.604Z,3.80
2023-01-21T05:31:26.210Z,2.70
2023-01-21T05:36:29.755Z,3.77
2023-01-21T05:41:34.540Z,2.47
2023-01-21T05:46:38.042Z,2.93
2023-01-21T05:51:41.988Z,3.63
2023-01-21T05:56:47.249Z,2.63
2023-01-21T06:01:51.198Z,2.70
2023-01-21T06:06:54.812Z,2.03
2023-01-21T06:11:59.684Z,1.57
2023-01-21T06:17:03.207Z,2.13
2023-01-21T06:22:06.705Z,1.90
2023-01-21T06:27:11.882Z,2.60
2023-01-21T06:32:15.456Z,1.70
2023-01-21T06:37:18.989Z,2.33
2023-01-21T06:42:24.226Z,3.73
2023-01-21T06:47:27.828Z,3.17
2023-01-21T06:52:31.330Z,1.80
2023-01-21T06:57:36.353Z,1.70
2023-01-21T07:02:39.993Z,1.93
2023-01-21T07:07:43.691Z,1.73
2023-01-21T07:12:48.599Z,2.10
2023-01-21T07:17:53.934Z,2.53
2023-01-21T07:22:57.429Z,4.33
2023-01-21T07:28:02.419Z,3.13
2023-01-21T07:33:07.002Z,2.90
2023-01-21T07:38:10.540Z,3.50
2023-01-21T07:43:15.575Z,2.77
2023-01-21T07:48:19.154Z,3.60
2023-01-21T07:53:22.936Z,2.63
2023-01-21T07:58:27.807Z,2.17
2023-01-21T08:03:31.368Z,2.30
2023-01-21T08:08:35.452Z,2.43
2023-01-21T08:13:40.340Z,2.80
2023-01-21T08:18:43.875Z,3.00
2023-01-21T08:23:47.496Z,3.47
2023-01-21T08:28:55.042Z,2.70
2023-01-21T08:33:59.516Z,2.33
2023-01-21T08:39:05.659Z,2.53
2023-01-21T08:44:10.707Z,1.90
2023-01-21T08:49:14.215Z,2.73
2023-01-21T08:54:17.901Z,5.00
2023-01-21T08:59:28.549Z,4.97
2023-01-21T09:04:32.808Z,3.40
2023-01-21T09:09:36.366Z,3.33
2023-01-21T09:14:41.235Z,3.90
2023-01-21T09:19:44.951Z,3.27
2023-01-21T09:24:48.894Z,4.27
2023-01-21T09:29:54.730Z,3.30
2023-01-21T09:34:58.225Z,5.37
2023-01-21T09:40:01.742Z,6.27
2023-01-21T09:45:07.481Z,4.10
2023-01-21T09:50:14.969Z,3.97
2023-01-21T09:55:21.123Z,3.10
2023-01-21T10:00:33.946Z,4.10
2023-01-21T10:05:55.671Z,3.50
2023-01-21T10:11:14.522Z,3.83
2023-01-21T10:16:29.477Z,3.40
2023-01-21T10:21:38.711Z,4.37
2023-01-21T10:26:44.442Z,2.97
2023-01-21T10:31:59.215Z,2.83
2023-01-21T10:37:16.450Z,3.00
2023-01-21T10:42:42.130Z,3.10
2023-01-21T10:47:52.257Z,2.80
2023-01-21T10:53:02.108Z,4.33
2023-01-21T10:58:12.238Z,5.63
2023-01-21T11:03:21.329Z,6.20
2023-01-21T11:08:27.297Z,3.90
2023-01-21T11:13:31.046Z,3.40
2023-01-21T11:18:38.704Z,4.80
2023-01-21T11:23:42.390Z,4.90
2023-01-21T11:28:46.831Z,4.70
2023-01-21T11:33:52.692Z,3.93
2023-01-21T11:39:02.898Z,4.53
2023-01-21T11:44:11.568Z,2.40
2023-01-21T11:49:26.491Z,2.63
2023-01-21T11:54:30.033Z,2.97
2023-01-21T11:59:35.654Z,1.93
2023-01-21T12:04:45.281Z,2.13
2023-01-21T12:09:51.709Z,2.80
2023-01-21T12:14:56.913Z,2.03
2023-01-21T12:20:22.062Z,2.80
2023-01-21T12:25:41.505Z,2.10
2023-01-21T12:30:52.768Z,2.83
2023-01-21T12:36:01.448Z,3.97
2023-01-21T12:41:09.932Z,3.03
2023-01-21T12:46:18.451Z,1.73
2023-01-21T12:51:28.248Z,2.63
2023-01-21T12:56:38.730Z,1.57
2023-01-21T13:01:49.460Z,2.77
2023-01-21T13:07:00.276Z,2.80
2023-01-21T13:12:07.336Z,2.10
2023-01-21T13:17:17.347Z,1.73
2023-01-21T13:22:36.260Z,2.10
2023-01-21T13:27:48.448Z,2.93
2023-01-21T13:33:00.760Z,1.63
2023-01-21T13:38:15.997Z,3.23
2023-01-21T13:43:44.284Z,5.00
2023-01-21T13:49:10.745Z,4.37
2023-01-21T13:54:59.917Z,2.83
2023-01-21T14:00:07.857Z,4.53
2023-01-21T14:05:20.165Z,4.17
2023-01-21T14:10:30.801Z,3.43
2023-01-21T14:15:49.430Z,2.77
2023-01-21T14:21:06.264Z,3.63
2023-01-21T14:26:36.486Z,3.17
2023-01-21T14:31:44.994Z,4.33
2023-01-21T14:36:56.986Z,5.77
2023-01-21T14:42:10.596Z,6.83
2023-01-21T14:47:17.214Z,4.93
2023-01-21T14:52:23.044Z,3.00
2023-01-21T14:57:31.280Z,2.80
2023-01-21T15:02:40.711Z,6.37
2023-01-21T15:07:49.661Z,3.17
2023-01-21T15:12:57.046Z,2.50
2023-01-21T15:18:04.962Z,2.77
2023-01-21T15:23:20.675Z,3.20
2023-01-21T15:28:46.380Z,2.60
2023-01-21T15:33:54.143Z,2.57
2023-01-21T15:39:02.278Z,2.23
2023-01-21T15:44:21.418Z,2.20
2023-01-21T15:49:42.731Z,2.13
2023-01-21T15:54:53.634Z,2.60
2023-01-21T16:00:19.334Z,2.80
2023-01-21T16:05:31.708Z,3.00
2023-01-21T16:10:43.854Z,2.80
2023-01-21T16:16:01.809Z,2.07
2023-01-21T16:21:05.764Z,2.90
2023-01-21T16:26:09.316Z,2.57
2023-01-21T16:31:14.495Z,3.80
2023-01-21T16:36:18.944Z,2.07
2023-01-21T16:41:27.586Z,2.47
2023-01-21T16:46:38.294Z,2.53
2023-01-21T16:51:50.672Z,2.10
2023-01-21T16:56:56.422Z,1.50
2023-01-21T17:02:02.754Z,1.20
2023-01-21T17:07:06.398Z,1.30
2023-01-21T17:12:22.644Z,1.47
2023-01-21T17:17:33.365Z,2.00
2023-01-21T17:22:41.235Z,1.93
2023-01-21T17:27:46.417Z,1.70
2023-01-21T17:33:02.780Z,1.83
2023-01-21T17:38:06.795Z,1.53
2023-01-21T17:43:20.300Z,1.60
2023-01-21T17:48:30.367Z,1.23
2023-01-21T17:53:40.979Z,1.70
2023-01-21T17:58:50.691Z,1.87
2023-01-21T18:03:55.660Z,2.43
2023-01-21T18:08:59.646Z,1.57
2023-01-21T18:14:03.184Z,2.27
2023-01-21T18:19:12.164Z,1.60
2023-01-21T18:24:15.955Z,2.37
2023-01-21T18:29:21.692Z,2.13
2023-01-21T18:34:26.831Z,1.80
2023-01-21T18:39:30.672Z,2.33
2023-01-21T18:44:34.632Z,2.50
2023-01-21T18:49:39.475Z,2.10
2023-01-21T18:54:43.259Z,1.60
2023-01-21T18:59:46.826Z,1.87
2023-01-21T19:04:51.844Z,1.83
2023-01-21T19:09:55.350Z,2.40
2023-01-21T19:14:59.038Z,1.90
2023-01-21T19:20:04.263Z,2.60
2023-01-21T19:25:09.090Z,3.83
2023-01-21T19:30:19.638Z,2.33
2023-01-21T19:35:29.580Z,3.07
2023-01-21T19:40:33.274Z,2.57
2023-01-21T19:45:36.813Z,2.57
2023-01-21T19:50:42.102Z,3.10
2023-01-21T19:55:46.968Z,2.53
2023-01-21T20:00:53.387Z,3.30
2023-01-21T20:06:01.320Z,2.40
2023-01-21T20:11:04.998Z,2.67
2023-01-21T20:16:16.156Z,3.17
2023-01-21T20:21:21.247Z,2.47
2023-01-21T20:26:28.528Z,2.70
2023-01-21T20:31:32.133Z,2.73
2023-01-21T20:36:38.737Z,2.97
2023-01-21T20:41:43.319Z,3.00
2023-01-21T20:46:46.947Z,2.80
2023-01-21T20:51:51.905Z,1.93
2023-01-21T20:56:55.744Z,3.07
2023-01-21T21:01:59.286Z,2.50
2023-01-21T21:07:04.316Z,4.07
2023-01-21T21:12:07.855Z,2.97
2023-01-21T21:17:12.350Z,4.33
2023-01-21T21:22:17.264Z,3.73
2023-01-21T21:27:20.920Z,3.00
2023-01-21T21:32:24.420Z,3.20
2023-01-21T21:37:29.274Z,4.17
2023-01-21T21:42:50.558Z,2.93
2023-01-21T21:48:11.348Z,3.03
2023-01-21T21:53:16.254Z,3.00
2023-01-21T21:58:19.915Z,4.77
2023-01-21T22:03:23.418Z,4.07
2023-01-21T22:08:29.397Z,3.00
2023-01-21T22:13:35.787Z,3.07
2023-01-21T22:18:39.587Z,3.67
2023-01-21T22:23:44.725Z,3.43
2023-01-21T22:28:48.393Z,2.93
2023-01-21T22:33:52.626Z,3.00
2023-01-21T22:38:57.919Z,3.83
2023-01-21T22:44:01.470Z,3.77
2023-01-21T22:49:04.998Z,4.33
2023-01-21T22:54:10.056Z,3.63
2023-01-21T22:59:14.179Z,3.63
2023-01-21T23:04:17.741Z,3.83
2023-01-21T23:09:22.628Z,3.73
2023-01-21T23:14:26.494Z,3.73
2023-01-21T23:19:29.969Z,3.50
2023-01-21T23:24:35.334Z,3.83
2023-01-21T23:29:38.840Z,2.90
2023-01-21T23:34:42.557Z,3.97
2023-01-21T23:39:47.477Z,4.07
2023-01-21T23:44:51.067Z,5.00
2023-01-21T23:49:54.621Z,6.77
2023-01-21T23:54:59.493Z,3.73
